createdAt,value
2022-12-15T00:00:18.857Z,9.00
2022-12-15T00:03:04.867Z,7.78
2022-12-15T00:05:51.222Z,7.18
2022-12-15T00:08:36.948Z,7.63
2022-12-15T00:11:23.206Z,8.30
2022-12-15T00:14:09.457Z,7.05
2022-12-15T00:16:55.103Z,7.63
2022-12-15T00:19:41.075Z,8.35
2022-12-15T00:22:27.247Z,8.93
2022-12-15T00:25:13.391Z,7.70
2022-12-15T00:27:59.253Z,7.03
2022-12-15T00:30:45.116Z,7.93
2022-12-15T00:33:35.796Z,8.80
2022-12-15T00:36:21.996Z,9.52
2022-12-15T00:38:49.258Z,9.80
2022-12-15T00:41:17.990Z,7.38
2022-12-15T00:43:46.324Z,7.93
2022-12-15T00:46:33.439Z,10.15
2022-12-15T00:49:01.200Z,8.10
2022-12-15T00:51:47.426Z,7.53
2022-12-15T00:54:33.510Z,7.32
2022-12-15T00:57:19.001Z,6.55
2022-12-15T01:00:04.708Z,6.57
2022-12-15T01:02:50.440Z,7.70
2022-12-15T01:05:36.397Z,7.28
2022-12-15T01:08:22.380Z,7.25
2022-12-15T01:11:08.126Z,7.00
2022-12-15T01:13:54.111Z,7.53
2022-12-15T01:16:39.945Z,8.55
2022-12-15T01:19:27.542Z,7.40
2022-12-15T01:21:54.805Z,7.82
2022-12-15T01:24:22.042Z,7.65
2022-12-15T01:26:49.318Z,7.53
2022-12-15T01:29:16.992Z,7.80
2022-12-15T01:31:44.293Z,7.50
2022-12-15T01:34:11.637Z,7.10
2022-12-15T01:36:38.890Z,8.20
2022-12-15T01:39:06.315Z,8.68
2022-12-15T01:41:33.525Z,8.20
2022-12-15T01:44:22.409Z,7.00
2022-12-15T01:46:56.362Z,7.88
2022-12-15T01:49:30.011Z,7.25
2022-12-15T01:52:01.575Z,7.72
2022-12-15T01:54:48.524Z,7.22
2022-12-15T01:57:22.746Z,6.88
2022-12-15T01:59:53.859Z,6.65
2022-12-15T02:02:25.052Z,6.78
2022-12-15T02:04:56.600Z,7.43
2022-12-15T02:07:24.556Z,8.30
2022-12-15T02:09:54.897Z,6.93
2022-12-15T02:12:26.452Z,6.55
2022-12-15T02:15:22.555Z,8.45
2022-12-15T02:18:14.426Z,5.80
2022-12-15T02:20:45.258Z,8.00
2022-12-15T02:23:50.315Z,6.30
2022-12-15T02:26:35.354Z,7.07
2022-12-15T02:29:30.304Z,7.05
2022-12-15T02:32:10.076Z,5.55
2022-12-15T02:35:01.768Z,5.82
2022-12-15T02:37:40.200Z,7.10
2022-12-15T02:40:10.060Z,6.40
2022-12-15T02:42:43.935Z,5.85
2022-12-15T02:45:20.638Z,5.53
2022-12-15T02:47:56.816Z,7.03
2022-12-15T02:50:48.660Z,5.80
2022-12-15T02:53:51.394Z,5.00
2022-12-15T02:56:36.622Z,5.25
2022-12-15T02:59:11.141Z,6.40
2022-12-15T03:02:00.167Z,5.50
2022-12-15T03:04:28.959Z,6.93
2022-12-15T03:07:08.553Z,5.57
2022-12-15T03:09:35.873Z,5.72
2022-12-15T03:12:03.219Z,5.40
2022-12-15T03:14:30.477Z,5.45
2022-12-15T03:16:57.806Z,4.90
2022-12-15T03:19:25.987Z,4.88
2022-12-15T03:21:53.395Z,4.57
2022-12-15T03:24:20.695Z,4.85
2022-12-15T03:26:50.105Z,4.90
2022-12-15T03:29:18.037Z,4.05
2022-12-15T03:31:45.502Z,6.38
2022-12-15T03:34:12.865Z,5.15
2022-12-15T03:36:40.219Z,5.70
2022-12-15T03:39:07.937Z,4.60
2022-12-15T03:41:35.253Z,4.53
2022-12-15T03:44:02.566Z,4.97
2022-12-15T03:46:29.844Z,4.18
2022-12-15T03:48:57.331Z,5.05
2022-12-15T03:51:24.708Z,4.15
2022-12-15T03:53:52.117Z,3.88
2022-12-15T03:56:19.425Z,5.38
2022-12-15T03:58:46.989Z,4.43
2022-12-15T04:01:27.262Z,4.63
2022-12-15T04:04:00.230Z,5.47
2022-12-15T04:06:29.563Z,4.72
2022-12-15T04:08:56.817Z,3.40
2022-12-15T04:11:24.048Z,4.25
2022-12-15T04:13:51.318Z,4.30
2022-12-15T04:16:20.437Z,4.82
2022-12-15T04:19:08.451Z,4.70
2022-12-15T04:21:35.733Z,3.42
2022-12-15T04:24:21.833Z,4.13
2022-12-15T04:27:07.670Z,3.53
2022-12-15T04:29:53.635Z,3.67
2022-12-15T04:32:39.396Z,3.72
2022-12-15T04:35:25.913Z,3.47
2022-12-15T04:38:12.540Z,3.50
2022-12-15T04:40:58.506Z,3.85
2022-12-15T04:43:44.645Z,3.85
2022-12-15T04:46:30.773Z,3.42
2022-12-15T04:49:16.794Z,3.65
2022-12-15T04:52:02.756Z,3.53
2022-12-15T04:54:49.308Z,3.72
2022-12-15T04:57:35.425Z,3.97
2022-12-15T05:00:21.875Z,3.35
2022-12-15T05:03:07.545Z,3.63
2022-12-15T05:05:53.433Z,4.15
2022-12-15T05:08:39.077Z,4.97
2022-12-15T05:11:24.842Z,3.85
2022-12-15T05:14:10.628Z,3.42
2022-12-15T05:16:56.505Z,4.22
2022-12-15T05:19:42.585Z,4.60
2022-12-15T05:22:28.720Z,3.90
2022-12-15T05:25:14.486Z,4.47
2022-12-15T05:28:00.545Z,3.85
2022-12-15T05:30:46.740Z,3.72
2022-12-15T05:33:13.981Z,3.17
2022-12-15T05:35:41.246Z,4.03
2022-12-15T05:38:08.622Z,3.30
2022-12-15T05:40:36.108Z,3.53
2022-12-15T05:43:03.587Z,4.13
2022-12-15T05:45:30.967Z,3.90
2022-12-15T05:47:58.214Z,3.58
2022-12-15T05:50:25.516Z,4.57
2022-12-15T05:52:52.809Z,3.80
2022-12-15T05:55:20.406Z,3.53
2022-12-15T05:57:56.827Z,3.95
2022-12-15T06:00:24.527Z,3.90
2022-12-15T06:02:51.823Z,3.55
2022-12-15T06:05:19.136Z,3.40
2022-12-15T06:07:46.432Z,3.38
2022-12-15T06:10:13.639Z,3.40
2022-12-15T06:12:40.885Z,3.28
2022-12-15T06:15:08.527Z,4.82
2022-12-15T06:17:35.769Z,3.25
2022-12-15T06:20:04.107Z,3.10
2022-12-15T06:22:31.332Z,4.03
2022-12-15T06:24:58.667Z,3.88
2022-12-15T06:27:26.005Z,3.55
2022-12-15T06:29:53.257Z,3.72
2022-12-15T06:32:21.539Z,3.15
2022-12-15T06:34:49.556Z,3.67
2022-12-15T06:37:16.806Z,4.22
2022-12-15T06:39:44.051Z,4.75
2022-12-15T06:42:11.490Z,3.78
2022-12-15T06:44:38.740Z,3.40
2022-12-15T06:49:43.150Z,3.85
2022-12-15T06:52:17.271Z,8.13
2022-12-15T07:14:02.162Z,8.65
2022-12-15T07:16:30.130Z,11.93
2022-12-15T07:18:57.465Z,8.90
2022-12-15T07:21:24.718Z,6.75
2022-12-15T07:23:55.402Z,6.85
2022-12-15T07:26:23.949Z,8.85
2022-12-15T07:28:51.649Z,8.25
2022-12-15T07:31:19.062Z,6.10
2022-12-15T07:33:48.376Z,7.03
2022-12-15T07:36:15.933Z,5.57
2022-12-15T07:38:45.407Z,6.53
2022-12-15T07:41:19.055Z,4.88
2022-12-15T07:43:47.866Z,5.40
2022-12-15T07:46:16.145Z,5.78
2022-12-15T07:48:43.451Z,5.70
2022-12-15T07:51:18.872Z,5.20
2022-12-15T07:53:47.290Z,5.38
2022-12-15T07:56:15.426Z,3.80
2022-12-15T07:58:42.880Z,5.57
2022-12-15T08:01:12.653Z,4.10
2022-12-15T08:03:40.971Z,5.90
2022-12-15T08:06:11.295Z,5.57
2022-12-15T08:08:39.423Z,5.22
2022-12-15T08:11:13.477Z,4.13
2022-12-15T08:16:30.269Z,3.35
2022-12-15T08:18:57.558Z,4.55
2022-12-15T08:21:24.900Z,3.88
2022-12-15T08:23:52.296Z,4.30
2022-12-15T08:26:22.688Z,7.97
2022-12-15T08:28:54.309Z,4.55
2022-12-15T08:31:23.502Z,3.97
2022-12-15T08:33:51.453Z,3.47
2022-12-15T08:36:20.605Z,3.65
2022-12-15T08:38:48.415Z,4.45
2022-12-15T08:41:23.403Z,3.00
2022-12-15T08:43:52.087Z,3.35
2022-12-15T08:46:28.997Z,4.40
2022-12-15T08:48:56.615Z,3.67
2022-12-15T08:51:28.171Z,3.45
2022-12-15T08:53:56.566Z,3.05
2022-12-15T08:56:25.362Z,4.18
2022-12-15T08:59:00.149Z,3.38
2022-12-15T09:01:29.348Z,3.67
2022-12-15T09:03:57.711Z,4.30
2022-12-15T09:06:26.970Z,4.05
2022-12-15T09:09:03.505Z,2.90
2022-12-15T09:11:31.360Z,3.83
2022-12-15T09:13:59.264Z,3.00
2022-12-15T09:16:27.934Z,2.85
2022-12-15T09:18:57.548Z,3.53
2022-12-15T09:21:27.390Z,3.80
2022-12-15T09:24:00.273Z,4.00
2022-12-15T09:26:30.641Z,4.63
2022-12-15T09:28:58.324Z,4.03
2022-12-15T09:31:29.011Z,4.15
2022-12-15T09:33:58.614Z,4.00
2022-12-15T09:36:27.131Z,3.58
2022-12-15T09:38:55.017Z,3.80
2022-12-15T09:41:25.319Z,3.92
2022-12-15T09:44:00.978Z,3.92
2022-12-15T09:46:49.999Z,3.70
2022-12-15T09:49:42.570Z,4.22
2022-12-15T09:52:19.834Z,3.88
2022-12-15T09:54:47.312Z,3.30
2022-12-15T09:57:23.550Z,3.55
2022-12-15T10:00:14.457Z,2.80
2022-12-15T10:03:08.512Z,4.20
2022-12-15T10:06:20.089Z,3.83
2022-12-15T10:08:56.087Z,4.38
2022-12-15T10:14:35.587Z,3.97
2022-12-15T10:17:11.705Z,3.30
2022-12-15T10:19:57.851Z,3.88
2022-12-15T10:22:29.956Z,3.30
2022-12-15T10:25:09.760Z,3.25
2022-12-15T10:27:40.874Z,3.10
2022-12-15T10:30:12.029Z,3.72
2022-12-15T10:32:50.529Z,4.07
2022-12-15T10:35:29.136Z,3.83
2022-12-15T10:38:04.656Z,4.82
2022-12-15T10:41:09.182Z,4.57
2022-12-15T10:43:46.808Z,4.03
2022-12-15T10:46:20.267Z,4.07
2022-12-15T10:49:06.445Z,6.00
2022-12-15T10:51:42.593Z,4.10
2022-12-15T10:54:09.868Z,4.22
2022-12-15T10:57:03.375Z,3.67
2022-12-15T10:59:36.315Z,3.38
2022-12-15T11:02:25.284Z,4.65
2022-12-15T11:05:00.697Z,5.10
2022-12-15T11:07:38.101Z,3.47
2022-12-15T11:10:48.730Z,4.20
2022-12-15T11:13:18.685Z,5.18
2022-12-15T11:15:51.724Z,3.50
2022-12-15T11:18:37.569Z,3.58
2022-12-15T11:21:37.438Z,4.45
2022-12-15T11:24:31.927Z,3.90
2022-12-15T11:27:21.260Z,3.17
2022-12-15T11:29:59.257Z,3.20
2022-12-15T11:32:29.865Z,2.72
2022-12-15T11:34:57.556Z,3.00
2022-12-15T11:37:39.033Z,3.60
2022-12-15T11:40:15.463Z,2.67
2022-12-15T11:43:04.284Z,3.30
2022-12-15T11:45:49.763Z,2.63
2022-12-15T11:48:22.229Z,3.13
2022-12-15T11:51:13.781Z,3.17
2022-12-15T11:54:18.359Z,3.72
2022-12-15T11:57:02.199Z,3.05
2022-12-15T11:59:38.471Z,2.85
2022-12-15T12:02:30.092Z,3.47
2022-12-15T12:05:25.402Z,3.10
2022-12-15T12:08:01.436Z,3.55
2022-12-15T12:10:43.553Z,2.50
2022-12-15T12:13:30.682Z,3.08
2022-12-15T12:16:32.033Z,2.42
2022-12-15T12:19:11.492Z,2.55
2022-12-15T12:21:45.067Z,2.45
2022-12-15T12:24:19.910Z,2.60
2022-12-15T12:27:16.580Z,2.40
2022-12-15T12:29:50.943Z,2.65
2022-12-15T12:32:42.751Z,3.05
2022-12-15T12:35:33.754Z,2.20
2022-12-15T12:38:04.446Z,2.85
2022-12-15T12:41:16.471Z,2.55
2022-12-15T12:43:55.681Z,1.65
2022-12-15T12:46:32.173Z,1.50
2022-12-15T12:49:37.199Z,2.45
2022-12-15T12:52:13.690Z,1.75
2022-12-15T12:54:42.934Z,1.30
2022-12-15T12:57:13.265Z,1.58
2022-12-15T12:59:41.860Z,1.75
2022-12-15T13:02:35.132Z,1.55
2022-12-15T13:05:23.315Z,1.40
2022-12-15T13:08:18.630Z,2.28
2022-12-15T13:10:47.953Z,1.60
2022-12-15T13:13:33.687Z,1.20
2022-12-15T13:16:20.023Z,1.63
2022-12-15T13:19:03.280Z,1.52
2022-12-15T13:21:43.322Z,1.60
2022-12-15T13:24:26.004Z,1.70
2022-12-15T13:27:02.870Z,1.35
2022-12-15T13:29:30.202Z,1.52
2022-12-15T13:31:57.862Z,1.17
2022-12-15T13:34:28.539Z,1.95
2022-12-15T13:36:58.020Z,1.23
2022-12-15T13:39:32.360Z,1.55
2022-12-15T13:42:34.207Z,1.70
2022-12-15T13:44:58.315Z,2.45
2022-12-15T13:47:30.179Z,1.40
2022-12-15T13:50:15.275Z,2.45
2022-12-15T13:55:38.848Z,2.55
2022-12-15T13:58:14.725Z,2.10
2022-12-15T14:00:51.034Z,1.83
2022-12-15T14:03:18.445Z,1.30
2022-12-15T14:05:56.783Z,2.53
2022-12-15T14:08:29.735Z,1.77
2022-12-15T14:11:07.087Z,1.23
2022-12-15T14:13:46.023Z,1.50
2022-12-15T14:16:22.072Z,1.25
2022-12-15T14:19:12.800Z,1.20
2022-12-15T14:21:40.197Z,2.40
2022-12-15T14:24:40.494Z,0.80
2022-12-15T14:27:08.336Z,1.42
2022-12-15T14:29:35.629Z,1.65
2022-12-15T14:32:03.529Z,1.80
2022-12-15T14:34:35.646Z,1.15
2022-12-15T14:37:07.804Z,1.52
2022-12-15T14:39:43.687Z,1.73
2022-12-15T14:42:23.628Z,1.58
2022-12-15T14:44:54.897Z,0.93
2022-12-15T14:47:39.215Z,1.70
2022-12-15T14:50:11.341Z,2.35
2022-12-15T14:52:41.907Z,1.52
2022-12-15T14:55:30.838Z,1.63
2022-12-15T14:57:58.708Z,1.83
2022-12-15T15:00:26.045Z,1.13
2022-12-15T15:03:36.717Z,1.88
2022-12-15T15:06:12.933Z,1.10
2022-12-15T15:08:52.719Z,1.55
2022-12-15T15:11:35.659Z,1.77
2022-12-15T15:14:12.802Z,1.50
2022-12-15T15:16:40.589Z,0.98
2022-12-15T15:19:15.981Z,1.10
2022-12-15T15:21:45.675Z,1.58
2022-12-15T15:24:12.948Z,1.85
2022-12-15T15:26:40.726Z,1.50
2022-12-15T15:29:32.556Z,0.90
2022-12-15T15:32:15.946Z,0.95
2022-12-15T15:34:47.507Z,1.00
2022-12-15T15:37:20.483Z,1.10
2022-12-15T15:39:55.750Z,0.98
2022-12-15T15:42:26.598Z,1.25
2022-12-15T15:44:57.621Z,1.55
2022-12-15T15:47:26.576Z,1.75
2022-12-15T15:49:55.570Z,2.20
2022-12-15T15:52:23.376Z,2.00
2022-12-15T15:54:52.788Z,1.77
2022-12-15T15:57:20.028Z,1.38
2022-12-15T15:59:47.801Z,2.13
2022-12-15T16:02:16.000Z,2.85
2022-12-15T16:04:44.173Z,1.65
2022-12-15T16:07:24.501Z,2.92
2022-12-15T16:09:52.748Z,1.58
2022-12-15T16:12:33.522Z,2.20
2022-12-15T16:15:00.833Z,2.03
2022-12-15T16:17:28.139Z,1.80
2022-12-15T16:19:56.161Z,2.50
2022-12-15T16:22:23.549Z,2.03
2022-12-15T16:24:50.816Z,2.55
2022-12-15T16:27:18.149Z,2.55
2022-12-15T16:29:45.375Z,2.17
2022-12-15T16:32:13.365Z,2.72
2022-12-15T16:34:41.925Z,1.75
2022-12-15T16:37:28.413Z,1.90
2022-12-15T16:39:55.663Z,1.98
2022-12-15T16:42:23.057Z,1.85
2022-12-15T16:44:50.416Z,2.20
2022-12-15T16:47:17.732Z,2.42
2022-12-15T16:49:45.204Z,2.22
2022-12-15T16:52:20.831Z,2.33
2022-12-15T16:54:49.658Z,2.25
2022-12-15T16:57:17.054Z,2.10
2022-12-15T16:59:44.266Z,7.82
2022-12-15T17:02:27.236Z,3.65
2022-12-15T17:04:55.555Z,6.32
2022-12-15T17:07:24.596Z,3.55
2022-12-15T17:09:51.928Z,4.20
2022-12-15T17:12:19.483Z,4.60
2022-12-15T17:14:47.160Z,5.55
2022-12-15T17:17:16.267Z,4.20
2022-12-15T17:19:57.860Z,7.32
2022-12-15T17:22:33.300Z,10.15
2022-12-15T17:25:00.897Z,10.98
2022-12-15T17:27:30.169Z,11.70
2022-12-15T17:30:00.085Z,13.93
2022-12-15T17:32:27.471Z,17.90
2022-12-15T17:34:54.816Z,17.75
2022-12-15T17:37:22.086Z,17.85
2022-12-15T17:39:51.367Z,16.17
2022-12-15T17:42:20.606Z,16.65
2022-12-15T17:44:49.080Z,17.00
2022-12-15T17:47:19.561Z,14.18
2022-12-15T17:49:47.431Z,16.52
2022-12-15T17:52:34.305Z,15.35
2022-12-15T17:55:03.324Z,13.60
2022-12-15T17:57:33.221Z,17.48
2022-12-15T18:00:01.908Z,13.15
2022-12-15T18:02:29.643Z,11.73
2022-12-15T18:05:02.817Z,11.82
2022-12-15T18:07:30.116Z,10.95
2022-12-15T18:09:57.402Z,12.75
2022-12-15T18:12:26.855Z,11.98
2022-12-15T18:14:55.918Z,12.05
2022-12-15T18:17:23.989Z,11.43
2022-12-15T18:19:51.291Z,10.75
2022-12-15T18:22:27.402Z,8.82
2022-12-15T18:24:54.794Z,12.73
2022-12-15T18:27:24.800Z,10.88
2022-12-15T18:29:52.877Z,10.80
2022-12-15T18:32:23.461Z,10.65
2022-12-15T18:34:50.891Z,12.40
2022-12-15T18:37:19.992Z,18.17
2022-12-15T18:39:47.713Z,11.15
2022-12-15T18:42:17.621Z,8.55
2022-12-15T18:44:51.267Z,11.27
2022-12-15T18:47:21.606Z,11.95
2022-12-15T18:49:49.123Z,10.48
2022-12-15T18:52:22.348Z,10.18
2022-12-15T18:54:51.375Z,9.27
2022-12-15T18:57:31.175Z,10.48
2022-12-15T19:00:20.319Z,8.68
2022-12-15T19:02:48.767Z,8.75
2022-12-15T19:05:28.815Z,9.13
2022-12-15T19:07:57.582Z,9.82
2022-12-15T19:10:26.777Z,12.50
2022-12-15T19:12:58.514Z,9.07
2022-12-15T19:15:26.109Z,11.13
2022-12-15T19:18:12.141Z,11.95
2022-12-15T19:20:58.222Z,10.98
2022-12-15T19:23:25.699Z,11.32
2022-12-15T19:25:54.294Z,11.05
2022-12-15T19:28:24.876Z,13.10
2022-12-15T19:30:52.561Z,10.80
2022-12-15T19:33:20.409Z,10.48
2022-12-15T19:35:51.075Z,10.43
2022-12-15T19:38:31.578Z,11.55
2022-12-15T19:41:00.217Z,10.40
2022-12-15T19:43:28.069Z,12.13
2022-12-15T19:45:55.426Z,12.45
2022-12-15T19:48:24.094Z,10.32
2022-12-15T19:50:52.374Z,11.30
2022-12-15T19:53:27.726Z,9.50
2022-12-15T19:55:58.117Z,9.27
2022-12-15T19:58:27.863Z,10.40
2022-12-15T20:00:58.147Z,9.70
2022-12-15T20:03:27.011Z,10.23
2022-12-15T20:05:56.255Z,11.20
2022-12-15T20:08:27.796Z,10.73
2022-12-15T20:10:56.139Z,9.93
2022-12-15T20:13:23.691Z,11.65
2022-12-15T20:15:51.282Z,9.85
2022-12-15T20:18:19.115Z,9.95
2022-12-15T20:20:48.746Z,12.00
2022-12-15T20:23:26.722Z,11.27
2022-12-15T20:25:55.868Z,9.93
2022-12-15T20:28:26.975Z,10.77
2022-12-15T20:30:56.267Z,11.40
2022-12-15T20:33:23.787Z,10.32
2022-12-15T20:35:52.277Z,8.95
2022-12-15T20:38:28.184Z,9.95
2022-12-15T20:40:56.591Z,11.25
2022-12-15T20:43:25.271Z,9.57
2022-12-15T20:46:17.356Z,10.52
2022-12-15T20:48:45.460Z,9.32
2022-12-15T20:51:23.420Z,11.10
2022-12-15T20:53:52.157Z,16.80
2022-12-15T20:56:21.915Z,10.75
2022-12-15T20:58:50.054Z,12.07
2022-12-15T21:01:31.849Z,12.38
2022-12-15T21:04:01.109Z,11.27
2022-12-15T21:06:28.785Z,14.70
2022-12-15T21:08:56.728Z,11.98
2022-12-15T21:11:28.583Z,11.20
2022-12-15T21:13:58.828Z,12.20
2022-12-15T21:16:28.680Z,10.68
2022-12-15T21:19:20.384Z,13.32
2022-12-15T21:21:51.641Z,12.05
2022-12-15T21:24:26.063Z,11.75
2022-12-15T21:26:53.792Z,11.43
2022-12-15T21:29:24.778Z,13.63
2022-12-15T21:31:52.183Z,11.98
2022-12-15T21:34:19.473Z,10.15
2022-12-15T21:36:51.776Z,11.38
2022-12-15T21:39:34.915Z,14.13
2022-12-15T21:42:11.821Z,11.88
2022-12-15T21:44:39.083Z,11.45
2022-12-15T21:47:15.391Z,10.68
2022-12-15T21:49:42.652Z,10.68
2022-12-15T21:52:10.279Z,12.90
2022-12-15T21:54:37.574Z,10.30
2022-12-15T21:57:06.675Z,11.48
2022-12-15T21:59:34.059Z,11.63
2022-12-15T22:02:02.453Z,9.65
2022-12-15T22:04:34.610Z,8.40
2022-12-15T22:07:01.955Z,9.98
2022-12-15T22:09:29.429Z,8.60
2022-12-15T22:11:57.464Z,9.38
2022-12-15T22:14:30.568Z,8.50
2022-12-15T22:17:00.701Z,6.90
2022-12-15T22:19:28.287Z,8.55
2022-12-15T22:21:55.504Z,7.78
2022-12-15T22:24:22.819Z,8.32
2022-12-15T22:26:50.309Z,7.97
2022-12-15T22:29:22.740Z,7.57
2022-12-15T22:31:50.754Z,6.80
2022-12-15T22:34:21.474Z,7.85
2022-12-15T22:36:52.190Z,7.15
2022-12-15T22:39:19.783Z,7.38
2022-12-15T22:41:50.433Z,6.88
2022-12-15T22:44:24.120Z,7.28
2022-12-15T22:46:54.136Z,6.63
2022-12-15T22:49:24.839Z,7.35
2022-12-15T22:51:52.365Z,7.63
2022-12-15T22:54:25.242Z,7.13
2022-12-15T22:57:04.293Z,5.80
2022-12-15T22:59:37.647Z,6.70
2022-12-15T23:02:05.516Z,6.68
2022-12-15T23:04:33.257Z,5.28
2022-12-15T23:07:05.418Z,5.80
2022-12-15T23:09:32.910Z,6.13
2022-12-15T23:12:00.137Z,6.75
2022-12-15T23:14:45.939Z,6.13
2022-12-15T23:17:13.962Z,5.63
2022-12-15T23:19:46.005Z,5.50
2022-12-15T23:22:13.569Z,5.53
2022-12-15T23:24:40.892Z,5.53
2022-12-15T23:27:11.932Z,5.13
2022-12-15T23:29:39.212Z,5.85
2022-12-15T23:32:06.535Z,4.90
2022-12-15T23:34:33.779Z,4.93
2022-12-15T23:37:01.034Z,6.22
2022-12-15T23:39:28.328Z,4.70
2022-12-15T23:41:55.576Z,4.75
2022-12-15T23:44:23.006Z,5.25
2022-12-15T23:46:50.242Z,5.50
2022-12-15T23:49:17.542Z,4.97
2022-12-15T23:51:44.734Z,4.35
2022-12-15T23:54:11.963Z,4.00
2022-12-15T23:56:40.661Z,4.63
2022-12-15T23:59:08.133Z,4.03
